Time;durP1;ratioP1;P1;durP2;ratioP2;P2;SDS_P1;SDS_P2;PMS_P1;PMS_P2;Temp;Humidity;BMP_temperature;BMP_pressure;BME280_temperature;BME280_humidity;BME280_pressure;Samples;Min_cycle;Max_cycle;Signal;HPM_P1;HPM_P2
2024/02/27 00:02:38;;;;;;;36.35;13.38;;;;;;;;;;5033987;28;20021;-70
2024/02/27 00:05:25;;;;;;;25.77;11.38;;;;;;;;;;5036622;28;20034;-70
2024/02/27 00:08:10;;;;;;;29.65;13.13;;;;;;;;;;5034786;28;20079;-70
2024/02/27 00:10:56;;;;;;;30.42;12.68;;;;;;;;;;5035666;28;20025;-70
2024/02/27 00:13:42;;;;;;;27.40;13.60;;;;;;;;;;5036598;28;20100;-70
2024/02/27 00:16:27;;;;;;;31.08;13.07;;;;;;;;;;5036406;28;20029;-70
2024/02/27 00:19:13;;;;;;;32.80;12.23;;;;;;;;;;5034733;28;20025;-69
2024/02/27 00:21:59;;;;;;;35.78;14.95;;;;;;;;;;5035509;28;20018;-70
2024/02/27 00:24:44;;;;;;;37.72;14.55;;;;;;;;;;5036358;28;20029;-69
2024/02/27 00:27:30;;;;;;;34.08;14.10;;;;;;;;;;5035979;28;20540;-70
2024/02/27 00:30:16;;;;;;;33.03;13.25;;;;;;;;;;5036114;28;20456;-70
2024/02/27 00:33:01;;;;;;;35.17;13.63;;;;;;;;;;5035511;28;20026;-70
2024/02/27 00:35:47;;;;;;;31.92;13.27;;;;;;;;;;5036633;28;20029;-69
2024/02/27 00:38:33;;;;;;;32.72;15.18;;;;;;;;;;5033762;28;20021;-70
2024/02/27 00:41:19;;;;;;;38.83;14.98;;;;;;;;;;5032668;28;20490;-70
2024/02/27 00:44:07;;;;;;;28.45;13.23;;;;;;;;;;5035203;28;20053;-70
2024/02/27 00:46:52;;;;;;;37.00;13.82;;;;;;;;;;5032673;28;20025;-70
2024/02/27 00:49:38;;;;;;;30.08;12.15;;;;;;;;;;5033754;28;20350;-70
2024/02/27 00:52:24;;;;;;;37.05;16.10;;;;;;;;;;5032856;28;20025;-69
2024/02/27 00:55:10;;;;;;;39.83;14.60;;;;;;;;;;5034432;28;20022;-69
2024/02/27 00:57:55;;;;;;;32.97;13.95;;;;;;;;;;5034896;28;20132;-71
2024/02/27 01:00:41;;;;;;;41.65;16.63;;;;;;;;;;5032894;28;20021;-70
2024/02/27 01:03:26;;;;;;;31.38;13.77;;;;;;;;;;5033962;28;20398;-69
2024/02/27 01:06:13;;;;;;;33.97;14.13;;;;;;;;;;5035181;28;20087;-70
2024/02/27 01:08:59;;;;;;;28.33;14.35;;;;;;;;;;5034925;28;20048;-69
2024/02/27 01:11:44;;;;;;;38.63;14.60;;;;;;;;;;5034732;28;20057;-69
2024/02/27 01:14:30;;;;;;;38.55;14.15;;;;;;;;;;5032172;28;20095;-69
2024/02/27 01:17:16;;;;;;;32.13;15.27;;;;;;;;;;5025808;28;20028;-70
2024/02/27 01:20:02;;;;;;;32.65;14.40;;;;;;;;;;5016965;28;20030;-70
2024/02/27 01:22:47;;;;;;;38.33;16.13;;;;;;;;;;5028154;28;20498;-70
2024/02/27 01:25:33;;;;;;;34.53;14.18;;;;;;;;;;5021434;28;20104;-70
2024/02/27 01:28:19;;;;;;;42.55;15.40;;;;;;;;;;5013276;28;20022;-70
2024/02/27 01:31:05;;;;;;;37.72;18.05;;;;;;;;;;5014207;28;20038;-70
2024/02/27 01:33:51;;;;;;;36.22;15.68;;;;;;;;;;5014507;28;20018;-70
2024/02/27 01:36:37;;;;;;;38.10;15.52;;;;;;;;;;5014090;28;20029;-70
2024/02/27 01:39:23;;;;;;;30.48;13.57;;;;;;;;;;5024187;28;20048;-70
2024/02/27 01:42:12;;;;;;;41.75;15.32;;;;;;;;;;5033232;28;20104;-70
2024/02/27 01:44:58;;;;;;;34.30;13.27;;;;;;;;;;5031817;28;20021;-70
2024/02/27 01:47:44;;;;;;;32.63;14.93;;;;;;;;;;5034184;28;20037;-70
2024/02/27 01:50:29;;;;;;;32.38;15.45;;;;;;;;;;5032457;28;20032;-70
2024/02/27 01:53:15;;;;;;;32.97;13.25;;;;;;;;;;5033401;28;20402;-70
2024/02/27 01:56:00;;;;;;;33.10;14.13;;;;;;;;;;5025475;28;20044;-70
2024/02/27 01:58:46;;;;;;;33.40;13.98;;;;;;;;;;5032347;28;20022;-70
2024/02/27 02:01:33;;;;;;;35.00;15.82;;;;;;;;;;5023692;28;20026;-70
2024/02/27 02:04:18;;;;;;;37.00;15.80;;;;;;;;;;5030978;28;20560;-70
2024/02/27 02:07:04;;;;;;;34.75;14.45;;;;;;;;;;5026368;28;20176;-70
2024/02/27 02:09:50;;;;;;;33.42;14.70;;;;;;;;;;5013684;28;20029;-70
2024/02/27 02:12:35;;;;;;;31.55;14.05;;;;;;;;;;5013795;28;20021;-70
2024/02/27 02:15:21;;;;;;;39.30;13.75;;;;;;;;;;5013346;28;20406;-70
2024/02/27 02:18:06;;;;;;;37.17;14.82;;;;;;;;;;5019291;28;20075;-70
2024/02/27 02:20:52;;;;;;;26.63;12.07;;;;;;;;;;5032105;28;20032;-70
2024/02/27 02:23:38;;;;;;;31.70;13.73;;;;;;;;;;5033582;28;20116;-70
2024/02/27 02:26:27;;;;;;;31.80;15.70;;;;;;;;;;5031784;28;20034;-70
2024/02/27 02:29:13;;;;;;;32.05;12.95;;;;;;;;;;5031230;28;20031;-70
2024/02/27 02:31:58;;;;;;;30.85;14.02;;;;;;;;;;5032724;28;20047;-70
2024/02/27 02:34:44;;;;;;;33.38;14.75;;;;;;;;;;5032974;28;20028;-70
2024/02/27 02:37:29;;;;;;;28.33;12.38;;;;;;;;;;5033447;28;20502;-70
2024/02/27 02:40:17;;;;;;;27.48;13.68;;;;;;;;;;5004639;28;20026;-69
2024/02/27 02:43:02;;;;;;;26.13;13.05;;;;;;;;;;5031309;28;20032;-69
2024/02/27 02:45:48;;;;;;;25.05;12.93;;;;;;;;;;5019336;28;20033;-70
2024/02/27 02:48:36;;;;;;;31.90;13.85;;;;;;;;;;5013858;28;20537;-70
2024/02/27 02:51:21;;;;;;;28.08;13.80;;;;;;;;;;5010497;28;20026;-70
2024/02/27 02:54:07;;;;;;;29.27;12.63;;;;;;;;;;5015689;28;20390;-70
2024/02/27 02:56:52;;;;;;;23.05;11.40;;;;;;;;;;5012785;28;20148;-70
2024/02/27 02:59:38;;;;;;;28.13;13.85;;;;;;;;;;5028344;28;20079;-70
2024/02/27 03:02:24;;;;;;;24.85;11.75;;;;;;;;;;5016613;28;20092;-70
2024/02/27 03:05:12;;;;;;;24.85;12.18;;;;;;;;;;5032699;28;20064;-70
2024/02/27 03:07:57;;;;;;;33.53;12.57;;;;;;;;;;5031422;28;20080;-70
2024/02/27 03:10:43;;;;;;;25.13;12.60;;;;;;;;;;5024022;28;20025;-70
2024/02/27 03:13:29;;;;;;;28.77;12.73;;;;;;;;;;5026610;28;20029;-69
2024/02/27 03:16:15;;;;;;;31.00;13.10;;;;;;;;;;5036574;28;20025;-69
2024/02/27 03:19:02;;;;;;;23.17;11.13;;;;;;;;;;5019420;28;20036;-70
2024/02/27 03:21:48;;;;;;;27.90;13.27;;;;;;;;;;5016424;28;20033;-71
2024/02/27 03:24:33;;;;;;;25.27;12.20;;;;;;;;;;5026379;28;20087;-70
2024/02/27 03:27:19;;;;;;;28.92;14.27;;;;;;;;;;5014395;28;20033;-70
2024/02/27 03:30:05;;;;;;;30.63;14.65;;;;;;;;;;5017248;28;20505;-70
2024/02/27 03:32:51;;;;;;;28.95;12.63;;;;;;;;;;5015389;28;20029;-69
2024/02/27 03:35:36;;;;;;;28.60;12.55;;;;;;;;;;5019530;28;20095;-71
2024/02/27 03:38:22;;;;;;;30.52;13.48;;;;;;;;;;5015693;28;20033;-70
2024/02/27 03:41:14;;;;;;;25.27;12.30;;;;;;;;;;5021885;28;20029;-70
2024/02/27 03:44:01;;;;;;;27.20;14.23;;;;;;;;;;5035536;28;20075;-71
2024/02/27 03:46:46;;;;;;;26.15;10.77;;;;;;;;;;5032607;28;20021;-70
2024/02/27 03:49:32;;;;;;;23.02;12.32;;;;;;;;;;5027386;28;20056;-70
2024/02/27 03:52:18;;;;;;;27.13;12.27;;;;;;;;;;5014894;28;20026;-70
2024/02/27 03:55:04;;;;;;;26.02;12.57;;;;;;;;;;5032225;28;20028;-70
2024/02/27 03:57:50;;;;;;;28.35;12.35;;;;;;;;;;5034555;28;20044;-70
2024/02/27 04:00:35;;;;;;;22.92;10.75;;;;;;;;;;5026188;28;20379;-70
2024/02/27 04:03:21;;;;;;;25.55;12.93;;;;;;;;;;5036042;28;20143;-70
2024/02/27 04:06:06;;;;;;;23.67;13.23;;;;;;;;;;5035329;28;20031;-70
2024/02/27 04:08:52;;;;;;;25.92;11.82;;;;;;;;;;5024653;28;20026;-69
2024/02/27 04:11:38;;;;;;;25.42;11.95;;;;;;;;;;5015536;28;20113;-70
2024/02/27 04:14:23;;;;;;;23.15;12.07;;;;;;;;;;5016419;28;20018;-70
2024/02/27 04:17:09;;;;;;;27.95;13.07;;;;;;;;;;5022188;28;20022;-70
2024/02/27 04:19:57;;;;;;;28.92;12.75;;;;;;;;;;5014611;28;20120;-70
2024/02/27 04:22:43;;;;;;;23.05;11.65;;;;;;;;;;5016203;28;20022;-70
2024/02/27 04:25:28;;;;;;;24.80;13.35;;;;;;;;;;5035935;28;20036;-70
2024/02/27 04:28:14;;;;;;;26.23;13.43;;;;;;;;;;5035223;28;20517;-70
2024/02/27 04:31:00;;;;;;;29.02;12.32;;;;;;;;;;5020389;28;20069;-69
2024/02/27 04:33:46;;;;;;;24.42;12.45;;;;;;;;;;5014584;28;20018;-70
2024/02/27 04:36:31;;;;;;;27.02;12.07;;;;;;;;;;5013566;28;20021;-70
2024/02/27 04:39:17;;;;;;;26.60;11.20;;;;;;;;;;5014815;28;20080;-69
2024/02/27 04:42:03;;;;;;;27.58;12.85;;;;;;;;;;5015567;28;20109;-70
2024/02/27 04:44:49;;;;;;;25.27;12.73;;;;;;;;;;5014829;28;20018;-70
2024/02/27 04:47:34;;;;;;;32.25;14.52;;;;;;;;;;5023740;28;20091;-70
2024/02/27 04:50:20;;;;;;;25.85;12.23;;;;;;;;;;5034317;28;20487;-70
2024/02/27 04:53:06;;;;;;;34.35;14.98;;;;;;;;;;5034865;28;20021;-70
2024/02/27 04:55:51;;;;;;;37.03;15.23;;;;;;;;;;5026670;28;20021;-70
2024/02/27 04:58:37;;;;;;;32.92;15.23;;;;;;;;;;5034910;28;20028;-70
2024/02/27 05:01:22;;;;;;;33.42;16.75;;;;;;;;;;5032026;28;20033;-70
2024/02/27 05:04:08;;;;;;;26.88;15.35;;;;;;;;;;5033064;28;20021;-70
2024/02/27 05:06:54;;;;;;;29.88;14.43;;;;;;;;;;5026187;28;20026;-70
2024/02/27 05:09:39;;;;;;;23.38;13.38;;;;;;;;;;5034748;28;20022;-70
2024/02/27 05:12:25;;;;;;;34.15;12.68;;;;;;;;;;5023322;28;20418;-70
2024/02/27 05:15:11;;;;;;;23.40;11.13;;;;;;;;;;5014626;28;20458;-70
2024/02/27 05:17:57;;;;;;;25.00;12.10;;;;;;;;;;5022009;28;20037;-70
2024/02/27 05:20:42;;;;;;;27.30;12.90;;;;;;;;;;5032926;28;20021;-70
2024/02/27 05:23:29;;;;;;;24.25;12.32;;;;;;;;;;5031070;28;20030;-70
2024/02/27 05:26:15;;;;;;;23.98;11.25;;;;;;;;;;5032597;28;20021;-70
2024/02/27 05:29:01;;;;;;;24.58;11.60;;;;;;;;;;5031849;28;20025;-70
2024/02/27 05:31:46;;;;;;;22.52;11.40;;;;;;;;;;5026301;28;20022;-70
2024/02/27 05:34:32;;;;;;;19.83;10.90;;;;;;;;;;5014736;28;20018;-70
2024/02/27 05:37:18;;;;;;;23.27;10.82;;;;;;;;;;5018242;28;20025;-70
2024/02/27 05:40:08;;;;;;;24.23;12.05;;;;;;;;;;5014527;28;20029;-70
2024/02/27 05:42:54;;;;;;;21.48;9.18;;;;;;;;;;5013144;28;20469;-70
2024/02/27 05:45:41;;;;;;;24.35;10.48;;;;;;;;;;5014135;28;20411;-70
2024/02/27 05:48:27;;;;;;;23.13;11.43;;;;;;;;;;5011478;28;20526;-70
2024/02/27 05:51:12;;;;;;;24.60;11.27;;;;;;;;;;5014002;28;20119;-70
2024/02/27 05:53:58;;;;;;;22.88;11.32;;;;;;;;;;5012525;28;20022;-70
2024/02/27 05:56:43;;;;;;;24.23;13.25;;;;;;;;;;5014497;28;20057;-69
2024/02/27 05:59:29;;;;;;;22.50;11.30;;;;;;;;;;5013043;28;20025;-70
2024/02/27 06:02:15;;;;;;;26.33;12.15;;;;;;;;;;5014215;28;20033;-70
2024/02/27 06:05:00;;;;;;;22.95;11.60;;;;;;;;;;5013682;28;20065;-69
2024/02/27 06:07:46;;;;;;;25.17;12.48;;;;;;;;;;5013933;28;20033;-70
2024/02/27 06:10:32;;;;;;;24.65;11.55;;;;;;;;;;5013400;28;20025;-69
2024/02/27 06:13:17;;;;;;;26.00;12.82;;;;;;;;;;5014442;28;20022;-69
2024/02/27 06:16:03;;;;;;;27.52;12.65;;;;;;;;;;5013163;28;20080;-69
2024/02/27 06:18:49;;;;;;;21.20;12.02;;;;;;;;;;5014345;28;20025;-69
2024/02/27 06:24:39;;;;;;;24.67;11.65;;;;;;;;;;5012280;28;20553;-69
2024/02/27 06:27:24;;;;;;;26.30;13.02;;;;;;;;;;5013027;28;20030;-69
2024/02/27 06:30:10;;;;;;;25.23;12.70;;;;;;;;;;5014170;28;20022;-69
2024/02/27 06:32:56;;;;;;;30.10;12.18;;;;;;;;;;5013307;28;20061;-69
2024/02/27 06:35:42;;;;;;;30.05;14.02;;;;;;;;;;5013651;28;20053;-70
2024/02/27 06:38:27;;;;;;;28.52;12.65;;;;;;;;;;5014182;28;20495;-69
2024/02/27 06:41:13;;;;;;;31.08;12.43;;;;;;;;;;5014081;28;20422;-69
2024/02/27 06:43:58;;;;;;;26.83;13.20;;;;;;;;;;5013570;28;20030;-70
2024/02/27 06:46:44;;;;;;;28.15;12.77;;;;;;;;;;5012721;28;20041;-70
2024/02/27 06:49:30;;;;;;;21.08;12.68;;;;;;;;;;5014010;28;20022;-69
2024/02/27 06:52:15;;;;;;;21.92;10.95;;;;;;;;;;5016568;28;20018;-69
2024/02/27 06:55:03;;;;;;;20.02;10.85;;;;;;;;;;5016852;28;20060;-70
2024/02/27 06:57:49;;;;;;;25.35;10.13;;;;;;;;;;5016105;28;20379;-70
2024/02/27 07:00:34;;;;;;;25.73;11.65;;;;;;;;;;5014190;28;20124;-69
2024/02/27 07:03:20;;;;;;;21.63;11.30;;;;;;;;;;5017844;28;20029;-70
2024/02/27 07:06:06;;;;;;;26.23;11.45;;;;;;;;;;5017722;28;20029;-70
2024/02/27 07:08:52;;;;;;;19.98;10.52;;;;;;;;;;5015838;28;20446;-69
2024/02/27 07:11:37;;;;;;;27.38;13.15;;;;;;;;;;5015968;28;20033;-70
2024/02/27 07:14:23;;;;;;;20.58;11.00;;;;;;;;;;5016807;28;20386;-70
2024/02/27 07:17:09;;;;;;;22.45;11.07;;;;;;;;;;5016508;28;20025;-70
2024/02/27 07:19:57;;;;;;;19.27;10.05;;;;;;;;;;5017182;28;20029;-70
2024/02/27 07:22:43;;;;;;;17.85;9.80;;;;;;;;;;5026623;28;20028;-70
2024/02/27 07:25:28;;;;;;;23.63;11.05;;;;;;;;;;5024605;28;20026;-70
2024/02/27 07:28:14;;;;;;;23.30;12.07;;;;;;;;;;5020700;28;20034;-70
2024/02/27 07:31:00;;;;;;;20.10;9.55;;;;;;;;;;5017759;28;20025;-71
2024/02/27 07:33:45;;;;;;;15.52;8.88;;;;;;;;;;5019990;28;20037;-70
2024/02/27 07:36:31;;;;;;;15.05;8.85;;;;;;;;;;5016444;28;20052;-70
2024/02/27 07:39:17;;;;;;;17.20;9.75;;;;;;;;;;5024106;28;20029;-70
2024/02/27 07:42:02;;;;;;;17.40;10.60;;;;;;;;;;5015510;28;20033;-70
2024/02/27 07:44:48;;;;;;;16.23;10.20;;;;;;;;;;5034023;28;20113;-70
2024/02/27 07:47:34;;;;;;;16.63;10.85;;;;;;;;;;5019128;28;20037;-70
2024/02/27 07:50:20;;;;;;;19.20;10.77;;;;;;;;;;5015424;28;20029;-70
2024/02/27 07:53:05;;;;;;;17.75;9.27;;;;;;;;;;5030705;28;20029;-70
2024/02/27 07:55:51;;;;;;;17.45;10.63;;;;;;;;;;5034836;28;20036;-70
2024/02/27 07:58:38;;;;;;;13.82;8.82;;;;;;;;;;5035945;28;20025;-70
2024/02/27 08:01:25;;;;;;;15.10;9.63;;;;;;;;;;5034267;28;20025;-69
2024/02/27 08:04:10;;;;;;;14.27;9.75;;;;;;;;;;5035840;28;20021;-69
2024/02/27 08:06:56;;;;;;;14.77;8.38;;;;;;;;;;5035189;28;20028;-70
2024/02/27 08:09:42;;;;;;;17.23;9.35;;;;;;;;;;5034271;28;20074;-70
2024/02/27 08:12:27;;;;;;;19.70;9.50;;;;;;;;;;5034235;28;20092;-70
2024/02/27 08:15:13;;;;;;;15.88;10.07;;;;;;;;;;5034345;28;20059;-70
2024/02/27 08:17:58;;;;;;;18.02;10.45;;;;;;;;;;5034471;28;20510;-70
2024/02/27 08:20:45;;;;;;;15.85;9.65;;;;;;;;;;5036148;28;20060;-70
2024/02/27 08:23:31;;;;;;;22.08;11.48;;;;;;;;;;5034655;28;20056;-70
2024/02/27 08:26:16;;;;;;;22.92;11.43;;;;;;;;;;5014096;28;20483;-70
2024/02/27 08:29:02;;;;;;;19.20;11.30;;;;;;;;;;5016172;28;20021;-70
2024/02/27 08:31:49;;;;;;;15.98;9.75;;;;;;;;;;5016153;28;20131;-70
2024/02/27 08:34:34;;;;;;;19.48;10.98;;;;;;;;;;5015506;28;20121;-71
2024/02/27 08:37:21;;;;;;;17.80;8.50;;;;;;;;;;5032471;28;20394;-70
2024/02/27 08:40:08;;;;;;;21.33;8.82;;;;;;;;;;5035158;28;20402;-70
2024/02/27 08:42:53;;;;;;;13.43;9.15;;;;;;;;;;5034709;28;20017;-70
2024/02/27 08:45:39;;;;;;;14.07;9.00;;;;;;;;;;5033197;28;20105;-70
2024/02/27 08:48:25;;;;;;;15.13;8.52;;;;;;;;;;5033419;28;20036;-70
2024/02/27 08:51:11;;;;;;;19.63;10.73;;;;;;;;;;5033788;28;20049;-70
2024/02/27 08:53:57;;;;;;;14.82;8.88;;;;;;;;;;5035314;28;20024;-70
2024/02/27 08:56:43;;;;;;;15.90;9.10;;;;;;;;;;5033569;28;20100;-70
2024/02/27 08:59:29;;;;;;;15.50;8.95;;;;;;;;;;5032336;28;20021;-70
2024/02/27 09:02:15;;;;;;;14.65;8.68;;;;;;;;;;5033280;28;20021;-69
2024/02/27 09:05:01;;;;;;;13.80;8.23;;;;;;;;;;5033977;28;20127;-70
2024/02/27 09:07:46;;;;;;;16.67;8.98;;;;;;;;;;5032171;28;20083;-70
2024/02/27 09:10:32;;;;;;;17.15;9.00;;;;;;;;;;5032700;28;20025;-69
2024/02/27 09:13:17;;;;;;;11.60;7.80;;;;;;;;;;5031226;28;20072;-70
2024/02/27 09:16:04;;;;;;;12.38;8.63;;;;;;;;;;5033048;28;20025;-70
2024/02/27 09:18:50;;;;;;;14.32;8.57;;;;;;;;;;5032784;28;20505;-70
2024/02/27 09:21:36;;;;;;;15.80;9.73;;;;;;;;;;5032509;28;20026;-71
2024/02/27 09:24:23;;;;;;;14.52;9.13;;;;;;;;;;5032273;28;20022;-69
2024/02/27 09:27:09;;;;;;;13.55;8.05;;;;;;;;;;5031614;28;20079;-70
2024/02/27 09:29:54;;;;;;;11.30;7.55;;;;;;;;;;5033582;28;20040;-70
2024/02/27 09:32:40;;;;;;;10.50;7.05;;;;;;;;;;5032170;28;20496;-70
2024/02/27 09:35:26;;;;;;;11.43;7.72;;;;;;;;;;5032704;28;20029;-69
2024/02/27 09:38:11;;;;;;;10.77;7.30;;;;;;;;;;5030966;28;20059;-70
2024/02/27 09:40:59;;;;;;;11.05;8.00;;;;;;;;;;5033032;28;20029;-70
2024/02/27 09:43:48;;;;;;;9.23;7.25;;;;;;;;;;5031993;28;20034;-70
2024/02/27 09:46:35;;;;;;;12.60;7.07;;;;;;;;;;5031467;28;20057;-70
2024/02/27 09:49:21;;;;;;;16.38;9.05;;;;;;;;;;5032105;28;20026;-70
2024/02/27 09:52:19;;;;;;;13.55;8.70;;;;;;;;;;5032009;28;20021;-69
2024/02/27 09:55:05;;;;;;;13.50;8.95;;;;;;;;;;5032735;28;20609;-69
2024/02/27 09:57:51;;;;;;;13.52;8.60;;;;;;;;;;5031202;28;20053;-69
2024/02/27 10:00:37;;;;;;;17.15;7.32;;;;;;;;;;5031990;28;20457;-70
2024/02/27 10:03:23;;;;;;;15.05;8.23;;;;;;;;;;5030872;28;20123;-70
2024/02/27 10:06:11;;;;;;;13.05;8.80;;;;;;;;;;5031427;28;20034;-70
2024/02/27 10:08:56;;;;;;;14.88;8.85;;;;;;;;;;5032275;28;20030;-70
2024/02/27 10:11:42;;;;;;;12.77;8.07;;;;;;;;;;5032050;28;20482;-69
2024/02/27 10:14:31;;;;;;;12.98;9.13;;;;;;;;;;5031542;28;20096;-70
2024/02/27 10:17:17;;;;;;;13.43;8.30;;;;;;;;;;5031592;28;20028;-69
2024/02/27 10:20:04;;;;;;;12.75;7.78;;;;;;;;;;5029076;28;20025;-70
2024/02/27 10:22:50;;;;;;;18.27;8.93;;;;;;;;;;5032227;28;20026;-69
2024/02/27 10:25:36;;;;;;;16.70;9.50;;;;;;;;;;5032326;28;20022;-70
2024/02/27 10:28:21;;;;;;;15.38;9.05;;;;;;;;;;5032423;28;20064;-69
2024/02/27 10:31:08;;;;;;;13.02;8.10;;;;;;;;;;5031668;28;20018;-69
2024/02/27 10:33:55;;;;;;;17.25;8.93;;;;;;;;;;5030976;28;20485;-70
2024/02/27 10:36:41;;;;;;;15.30;8.18;;;;;;;;;;5028737;28;20029;-72
2024/02/27 10:39:27;;;;;;;13.23;7.55;;;;;;;;;;5021259;28;20058;-71
2024/02/27 10:42:12;;;;;;;13.57;8.55;;;;;;;;;;5023835;28;20022;-71
2024/02/27 10:44:58;;;;;;;18.77;9.00;;;;;;;;;;5014640;28;20033;-71
2024/02/27 10:47:44;;;;;;;12.43;8.95;;;;;;;;;;5039440;23;20054;-71
2024/02/27 10:50:32;;;;;;;18.60;8.85;;;;;;;;;;5019786;28;20105;-70
2024/02/27 10:53:19;;;;;;;14.77;7.93;;;;;;;;;;5035781;28;20018;-69
2024/02/27 10:56:06;;;;;;;13.55;7.57;;;;;;;;;;5019657;28;20037;-70
2024/02/27 10:58:52;;;;;;;13.60;7.85;;;;;;;;;;5008065;28;20112;-71
2024/02/27 11:01:40;;;;;;;12.68;6.68;;;;;;;;;;5005519;28;20161;-70
2024/02/27 11:04:32;;;;;;;14.50;7.50;;;;;;;;;;5010709;28;20399;-71
2024/02/27 11:07:18;;;;;;;14.57;7.20;;;;;;;;;;5002402;28;20442;-70
2024/02/27 11:10:05;;;;;;;14.27;7.63;;;;;;;;;;4999766;28;20464;-70
2024/02/27 11:12:52;;;;;;;14.73;7.85;;;;;;;;;;5010583;28;20446;-70
2024/02/27 11:15:39;;;;;;;16.83;8.50;;;;;;;;;;5011571;28;20037;-70
2024/02/27 11:18:27;;;;;;;16.85;9.13;;;;;;;;;;5011331;28;20072;-70
2024/02/27 11:21:13;;;;;;;15.52;9.05;;;;;;;;;;5008720;28;20018;-70
2024/02/27 11:23:59;;;;;;;17.30;9.98;;;;;;;;;;5004642;28;20022;-69
2024/02/27 11:26:48;;;;;;;15.63;7.35;;;;;;;;;;5000073;28;20384;-69
2024/02/27 11:29:34;;;;;;;16.48;9.50;;;;;;;;;;5008053;28;20030;-69
2024/02/27 11:32:21;;;;;;;15.50;7.35;;;;;;;;;;5012236;28;20440;-72
2024/02/27 11:35:09;;;;;;;14.50;8.35;;;;;;;;;;5003736;28;20037;-71
2024/02/27 11:37:55;;;;;;;17.52;8.15;;;;;;;;;;5019289;28;20455;-73
2024/02/27 11:40:49;;;;;;;13.73;8.57;;;;;;;;;;5008925;28;20076;-71
2024/02/27 11:43:35;;;;;;;15.07;8.30;;;;;;;;;;5014072;28;20030;-69
2024/02/27 11:46:27;;;;;;;17.05;9.57;;;;;;;;;;5013035;28;20029;-70
2024/02/27 11:49:36;;;;;;;16.95;8.30;;;;;;;;;;4999053;28;20105;-70
2024/02/27 11:52:21;;;;;;;17.35;7.85;;;;;;;;;;5007423;28;20102;-70
2024/02/27 11:55:08;;;;;;;14.05;7.55;;;;;;;;;;4995581;28;20480;-70
2024/02/27 11:57:56;;;;;;;15.65;7.93;;;;;;;;;;5008067;28;20404;-69
2024/02/27 12:00:47;;;;;;;13.43;8.98;;;;;;;;;;5005640;28;20034;-71
2024/02/27 12:03:33;;;;;;;19.33;10.35;;;;;;;;;;5007804;28;20101;-69
2024/02/27 12:06:19;;;;;;;14.70;8.40;;;;;;;;;;4995057;28;20077;-69
2024/02/27 12:09:04;;;;;;;14.60;8.20;;;;;;;;;;4995524;28;20033;-70
2024/02/27 12:11:50;;;;;;;15.63;9.90;;;;;;;;;;4995546;28;20488;-68
2024/02/27 12:14:35;;;;;;;18.13;9.73;;;;;;;;;;4994258;28;20058;-70
2024/02/27 12:17:21;;;;;;;18.52;9.80;;;;;;;;;;4995258;28;20026;-69
2024/02/27 12:20:12;;;;;;;17.58;9.38;;;;;;;;;;4995701;28;20108;-69
2024/02/27 12:22:57;;;;;;;18.92;9.95;;;;;;;;;;5007615;28;20026;-69
2024/02/27 12:25:44;;;;;;;16.88;9.75;;;;;;;;;;4994809;28;20058;-69
2024/02/27 12:28:30;;;;;;;21.83;11.15;;;;;;;;;;4994438;28;20061;-70
2024/02/27 12:31:15;;;;;;;15.23;9.13;;;;;;;;;;4995710;28;20105;-69
2024/02/27 12:34:02;;;;;;;14.20;8.13;;;;;;;;;;4995433;28;20033;-69
2024/02/27 12:36:48;;;;;;;18.33;10.20;;;;;;;;;;5006367;28;20033;-70
2024/02/27 12:39:34;;;;;;;19.02;10.50;;;;;;;;;;4995565;28;20062;-69
2024/02/27 12:42:19;;;;;;;18.00;8.98;;;;;;;;;;5007650;28;20118;-69
2024/02/27 12:45:12;;;;;;;18.05;10.20;;;;;;;;;;4994431;28;20054;-70
2024/02/27 12:47:58;;;;;;;17.67;10.18;;;;;;;;;;5006683;28;20033;-69
2024/02/27 12:50:46;;;;;;;16.35;9.07;;;;;;;;;;4994551;28;20028;-69
2024/02/27 12:53:32;;;;;;;22.15;11.18;;;;;;;;;;4993413;28;20168;-70
2024/02/27 12:56:19;;;;;;;22.00;11.20;;;;;;;;;;5006397;28;20029;-69
2024/02/27 12:59:07;;;;;;;18.77;9.15;;;;;;;;;;4995164;28;20053;-69
2024/02/27 13:01:54;;;;;;;19.05;10.52;;;;;;;;;;5006972;28;20061;-70
2024/02/27 13:04:41;;;;;;;17.90;8.43;;;;;;;;;;4993676;28;20365;-70
2024/02/27 13:07:26;;;;;;;21.13;10.35;;;;;;;;;;4992642;28;20030;-70
2024/02/27 13:10:13;;;;;;;21.17;10.23;;;;;;;;;;4994978;28;20025;-69
2024/02/27 13:13:16;;;;;;;18.42;8.35;;;;;;;;;;4993731;28;20385;-69
2024/02/27 13:16:03;;;;;;;17.38;10.57;;;;;;;;;;5006372;28;20026;-69
2024/02/27 13:18:48;;;;;;;19.38;10.90;;;;;;;;;;4993315;28;20057;-69
2024/02/27 13:21:34;;;;;;;18.45;9.23;;;;;;;;;;5005554;28;20493;-69
2024/02/27 13:24:20;;;;;;;17.40;11.05;;;;;;;;;;4996766;28;20026;-69
2024/02/27 13:27:05;;;;;;;19.05;10.88;;;;;;;;;;4992874;28;20038;-69
2024/02/27 13:29:51;;;;;;;19.27;9.75;;;;;;;;;;4993364;28;20026;-69
2024/02/27 13:32:37;;;;;;;20.83;11.13;;;;;;;;;;4993626;28;20031;-69
2024/02/27 13:35:22;;;;;;;22.65;10.77;;;;;;;;;;5006324;28;20117;-69
2024/02/27 13:38:08;;;;;;;17.55;9.90;;;;;;;;;;4992584;28;20022;-69
2024/02/27 13:40:53;;;;;;;20.63;10.82;;;;;;;;;;4993055;28;20112;-69
2024/02/27 13:43:39;;;;;;;20.13;11.00;;;;;;;;;;4994221;28;20030;-69
2024/02/27 13:46:25;;;;;;;19.45;9.65;;;;;;;;;;4993078;28;20438;-69
2024/02/27 13:49:19;;;;;;;25.48;10.82;;;;;;;;;;4993684;28;20415;-69
2024/02/27 13:52:05;;;;;;;21.27;11.43;;;;;;;;;;4993263;28;20033;-69
2024/02/27 13:54:50;;;;;;;22.60;10.77;;;;;;;;;;5005638;28;20015;-69
2024/02/27 13:57:36;;;;;;;23.55;12.07;;;;;;;;;;4994125;28;20101;-69
2024/02/27 14:00:22;;;;;;;18.27;9.93;;;;;;;;;;4992422;28;20022;-69
2024/02/27 14:03:08;;;;;;;20.35;10.80;;;;;;;;;;4992941;28;20022;-69
2024/02/27 14:05:54;;;;;;;25.10;10.98;;;;;;;;;;5005283;28;20073;-69
2024/02/27 14:08:39;;;;;;;24.05;9.35;;;;;;;;;;5004677;28;20867;-69
2024/02/27 14:11:25;;;;;;;20.27;10.98;;;;;;;;;;4993296;28;20027;-69
2024/02/27 14:14:11;;;;;;;17.92;10.52;;;;;;;;;;5001738;28;20018;-70
2024/02/27 14:16:57;;;;;;;25.42;10.70;;;;;;;;;;4998799;28;20064;-70
2024/02/27 14:19:42;;;;;;;19.90;10.02;;;;;;;;;;4999669;28;20030;-69
2024/02/27 14:22:28;;;;;;;21.45;10.63;;;;;;;;;;5002004;28;20023;-69
2024/02/27 14:25:13;;;;;;;24.05;11.00;;;;;;;;;;5002796;28;20519;-69
2024/02/27 14:27:59;;;;;;;21.95;10.68;;;;;;;;;;5002969;28;20105;-69
2024/02/27 14:30:45;;;;;;;21.60;10.57;;;;;;;;;;5003807;28;20022;-69
2024/02/27 14:33:30;;;;;;;19.08;10.10;;;;;;;;;;5000432;28;20022;-69
2024/02/27 14:36:16;;;;;;;20.83;11.20;;;;;;;;;;5000830;28;20045;-69
2024/02/27 14:39:02;;;;;;;22.85;11.48;;;;;;;;;;5009259;28;20018;-69
2024/02/27 14:41:47;;;;;;;21.95;11.60;;;;;;;;;;5010583;28;20030;-69
2024/02/27 14:44:33;;;;;;;20.60;10.65;;;;;;;;;;5012419;28;20026;-70
2024/02/27 14:47:18;;;;;;;24.50;10.95;;;;;;;;;;5012983;28;20558;-69
2024/02/27 14:50:04;;;;;;;21.08;10.27;;;;;;;;;;5012992;28;20109;-69
2024/02/27 14:52:50;;;;;;;20.50;11.60;;;;;;;;;;5005049;28;20107;-70
2024/02/27 14:55:36;;;;;;;20.70;10.98;;;;;;;;;;5004568;28;20028;-70
2024/02/27 14:58:22;;;;;;;26.30;10.82;;;;;;;;;;5004054;28;20030;-71
2024/02/27 15:01:07;;;;;;;20.33;10.82;;;;;;;;;;5004409;28;20514;-71
2024/02/27 15:03:56;;;;;;;18.83;10.50;;;;;;;;;;4996320;28;20104;-71
2024/02/27 15:06:43;;;;;;;18.58;9.80;;;;;;;;;;5011256;28;20395;-71
2024/02/27 15:09:30;;;;;;;20.33;10.55;;;;;;;;;;5010768;28;20032;-70
2024/02/27 15:12:16;;;;;;;19.17;10.15;;;;;;;;;;5015279;28;20104;-70
2024/02/27 15:15:02;;;;;;;21.08;9.38;;;;;;;;;;5016413;28;20021;-70
2024/02/27 15:17:48;;;;;;;21.35;10.77;;;;;;;;;;5015217;28;20029;-70
2024/02/27 15:20:34;;;;;;;22.00;10.18;;;;;;;;;;5015869;28;20163;-70
2024/02/27 15:23:20;;;;;;;17.58;10.55;;;;;;;;;;5016340;28;20054;-70
2024/02/27 15:26:05;;;;;;;20.13;10.55;;;;;;;;;;5016125;28;20025;-70
2024/02/27 15:28:51;;;;;;;20.00;10.00;;;;;;;;;;5015457;28;20041;-71
2024/02/27 15:31:40;;;;;;;20.70;8.98;;;;;;;;;;5016336;28;20368;-71
2024/02/27 15:34:26;;;;;;;19.77;10.15;;;;;;;;;;5015009;28;20026;-71
2024/02/27 15:37:12;;;;;;;20.27;10.70;;;;;;;;;;5015205;28;20510;-70
2024/02/27 15:39:57;;;;;;;23.95;12.52;;;;;;;;;;5014439;28;20514;-70
2024/02/27 15:42:43;;;;;;;25.17;10.70;;;;;;;;;;5015125;28;20375;-71
2024/02/27 15:45:28;;;;;;;21.35;11.43;;;;;;;;;;5015497;28;20030;-70
2024/02/27 15:48:14;;;;;;;27.50;15.20;;;;;;;;;;5015238;28;20105;-71
2024/02/27 15:51:00;;;;;;;25.50;15.13;;;;;;;;;;5015790;28;20026;-71
2024/02/27 15:53:45;;;;;;;22.75;12.60;;;;;;;;;;5014833;28;20022;-71
2024/02/27 15:56:31;;;;;;;21.85;11.52;;;;;;;;;;5014885;28;20026;-71
2024/02/27 15:59:17;;;;;;;21.98;10.63;;;;;;;;;;5015590;28;20029;-71
2024/02/27 16:02:02;;;;;;;18.50;10.57;;;;;;;;;;5015274;28;20033;-70
2024/02/27 16:04:56;;;;;;;22.95;10.88;;;;;;;;;;5015391;28;20125;-71
2024/02/27 16:07:45;;;;;;;22.27;11.13;;;;;;;;;;5014978;28;20138;-71
2024/02/27 16:10:31;;;;;;;22.42;11.10;;;;;;;;;;5014073;28;20104;-71
2024/02/27 16:13:17;;;;;;;26.05;10.65;;;;;;;;;;5015072;28;20057;-70
2024/02/27 16:16:03;;;;;;;22.30;10.02;;;;;;;;;;5014814;28;20029;-70